METAR Data
IDs: Format: Raw Decoded Include TAF

Data at: 1302 UTC 24 Jan 2021

KOXV 241255Z AUTO 02003KT 10SM OVC047 M02/M04 A2999 RMK AO2
KOXV 241235Z AUTO 01003KT 10SM OVC044 M02/M04 A2999 RMK AO2
KOXV 241215Z AUTO 00000KT 10SM OVC044 M02/M04 A2998 RMK AO2
KOXV 241155Z AUTO 00000KT 10SM OVC042 M02/M04 A2998 RMK AO2
KOXV 241135Z AUTO 00000KT 10SM OVC039 M02/M04 A2998 RMK AO2
KOXV 241115Z AUTO 11003KT 10SM BKN038 OVC046 M02/M05 A2997 RMK AO2
KOXV 241055Z AUTO 13005KT 10SM SCT039 OVC046 M02/M05 A2997 RMK AO2
KOXV 241035Z AUTO 12004KT 10SM BKN038 OVC046 M02/M04 A2997 RMK AO2
KOXV 241015Z AUTO 12005KT 10SM SCT033 BKN046 OVC050 M02/M04 A2997 RMK AO2
KOXV 240955Z AUTO 12005KT 10SM BKN031 OVC049 M02/M05 A2997 RMK AO2
KOXV 240935Z AUTO 11004KT 10SM FEW032 BKN048 OVC055 M02/M05 A2998 RMK AO2
KOXV 240915Z AUTO 11005KT 10SM SCT031 OVC048 M02/M05 A2998 RMK AO2
KOXV 240855Z AUTO 10006KT 10SM OVC030 M02/M05 A2998 RMK AO2
KOXV 240835Z AUTO 10005KT 10SM OVC033 M02/M05 A2998 RMK AO2
KOXV 240815Z AUTO 11004KT 10SM SCT032 BKN039 OVC045 M02/M05 A2998 RMK AO2
KOXV 240755Z AUTO 11004KT 10SM FEW029 BKN038 OVC045 M02/M05 A2998 RMK AO2
KOXV 240735Z AUTO 12004KT 10SM OVC036 M02/M05 A2999 RMK AO2
KOXV 240715Z AUTO 14006KT 10SM OVC036 M02/M05 A2999 RMK AO2
KOXV 240655Z AUTO 12007KT 10SM OVC037 M02/M05 A2998 RMK AO2
KOXV 240635Z AUTO 13008KT 10SM OVC036 M02/M05 A2999 RMK AO2
KOXV 240615Z AUTO 13009KT 10SM OVC036 M02/M05 A2999 RMK AO2
KOXV 240415Z AUTO 12008KT 9SM -SN SCT003 SCT007 OVC038 M03/M04 A3002 RMK AO2
KOXV 240335Z AUTO 14010KT 1 1/2SM -SN OVC003 M03/M05 A3003 RMK AO2
KOXV 240315Z AUTO 15013KT 5SM HZ FEW005 SCT013 BKN024 M02/M06 A3004 RMK AO2
KOXV 240255Z AUTO 13009KT 9SM FEW013 BKN025 OVC039 M02/M06 A3004 RMK AO2
KOXV 240235Z AUTO 14010KT 10SM SCT027 BKN032 OVC047 M03/M05 A3005 RMK AO2
KOXV 240215Z AUTO 13010G16KT 4SM -SN FEW003 BKN025 OVC030 M03/M06 A3005 RMK AO2
KOXV 240155Z AUTO 13009KT 9SM FEW007 BKN023 OVC044 M03/M08 A3006 RMK AO2
KOXV 240135Z AUTO 11006KT 10SM SCT038 SCT043 OVC050 M03/M09 A3007 RMK AO2
KOXV 240115Z AUTO 12006KT FEW039 SCT050 BKN065 M03/M09 A3008 RMK AO2
KOXV 240055Z AUTO 12008KT 10SM SCT039 BKN055 OVC070 M03/M09 A3007 RMK AO2
KOXV 240035Z AUTO 11007KT 10SM FEW039 BKN050 OVC070 M03/M09 A3008 RMK AO2
KOXV 240015Z AUTO 12006G12KT 10SM BKN055 OVC070 M03/M09 A3007 RMK AO2
KOXV 232355Z AUTO 11008KT 10SM SCT055 BKN065 OVC080 M03/M09 A3007 RMK AO2
KOXV 232335Z AUTO 11007G13KT 10SM BKN075 OVC090 M03/M09 A3007 RMK AO2
KOXV 232315Z AUTO 10010G16KT 10SM FEW060 SCT065 OVC090 M03/M09 A3007 RMK AO2
KOXV 232255Z AUTO 10010KT 10SM BKN065 BKN075 BKN090 M04/M09 A3007 RMK AO2
KOXV 232235Z AUTO 09009KT 10SM SCT065 BKN075 OVC085 M03/M10 A3007 RMK AO2
KOXV 232215Z AUTO 10007G15KT 10SM FEW080 BKN090 BKN120 M02/M11 A3009 RMK AO2
KOXV 232155Z AUTO 11009G14KT 10SM BKN100 OVC120 M02/M12 A3008 RMK AO2
KOXV 232135Z AUTO 12010G16KT 10SM BKN100 OVC130 M02/M12 A3010 RMK AO2
KOXV 232115Z AUTO 11009G15KT 10SM FEW080 OVC100 M02/M12 A3011 RMK AO2
KOXV 232055Z AUTO 13013KT 10SM BKN090 BKN110 M02/M13 A3012 RMK AO2
KOXV 232035Z AUTO 12010G18KT 10SM BKN110 M02/M13 A3013 RMK AO2
KOXV 232015Z AUTO 13011KT 10SM SCT110 M02/M14 A3012 RMK AO2
KOXV 231955Z AUTO 12007KT 10SM SCT100 M03/M14 A3015 RMK AO2
KOXV 231935Z AUTO 12009G14KT 10SM OVC100 M03/M14 A3016 RMK AO2
KOXV 231915Z AUTO 13009KT 10SM OVC100 M03/M14 A3017 RMK AO2
KOXV 231855Z AUTO 12009KT 10SM OVC100 M04/M15 A3018 RMK AO2
KOXV 231835Z AUTO 13007KT 10SM FEW070 OVC100 M04/M15 A3019 RMK AO2
KOXV 231815Z AUTO 13009KT 10SM FEW070 BKN100 BKN120 M05/M15 A3021 RMK AO2
KOXV 231755Z AUTO 13010KT 10SM SCT070 SCT100 BKN120 M05/M16 A3024 RMK AO2
KOXV 231715Z AUTO 12007KT 10SM FEW110 M06/M16 A3026 RMK AO2
KOXV 231655Z AUTO 12008KT 10SM SCT110 M07/M16 A3027 RMK AO2
KOXV 231635Z AUTO 13008KT 10SM CLR M07/M16 A3028 RMK AO2
KOXV 231615Z AUTO 14008KT 10SM CLR M08/M16 A3029 RMK AO2
KOXV 231555Z AUTO 13010KT 10SM CLR M09/M16 A3029 RMK AO2
KOXV 231515Z AUTO 13010KT 10SM BKN060 SCT070 BKN085 M09/M16 A3029 RMK AO2
KOXV 231455Z AUTO 14010KT 10SM FEW065 FEW080 SCT090 M09/M16 A3029 RMK AO2
KOXV 231435Z AUTO 14010KT 10SM SCT075 BKN085 M10/M16 A3030 RMK AO2
KOXV 231415Z AUTO 13007KT 10SM SCT075 BKN100 M10/M16 A3030 RMK AO2
KOXV 231355Z AUTO 13007KT 10SM OVC100 M11/M15 A3030 RMK AO2
KOXV 231335Z AUTO 13006KT 10SM M11/M16 A3030 RMK AO2
KOXV 231315Z AUTO 13006KT A3030 RMK AO2 PWINO
KOXV 231255Z AUTO 13006KT 10SM OVC110 M12/M16 A3030 RMK AO2
KOXV 231235Z AUTO 14004KT 10SM BKN110 OVC250 M12/M16 A3030 RMK AO2
KOXV 231215Z AUTO 12004KT 10SM BKN120 BKN250 M12/M16 A3029 RMK AO2
KOXV 231155Z AUTO 11003KT 10SM BKN120 M12/M15 A3028 RMK AO2
KOXV 231135Z AUTO 10004KT 10SM FEW120 M12/M15 A3028 RMK AO2
KOXV 231115Z AUTO 11004KT 10SM SCT120 M12/M16 A3028 RMK AO2
KOXV 231055Z AUTO 12004KT 10SM CLR M11/M15 A3029 RMK AO2
KOXV 231035Z AUTO 12003KT 10SM CLR M12/M15 A3030 RMK AO2
KOXV 231015Z AUTO 13003KT 10SM CLR M11/M15 A3030 RMK AO2
KOXV 230955Z AUTO 14004KT 10SM CLR M11/M15 A3030 RMK AO2
KOXV 230935Z AUTO 15004KT 10SM CLR M11/M15 A3030 RMK AO2
KOXV 230915Z AUTO 15004KT 10SM CLR M11/M15 A3031 RMK AO2
KOXV 230815Z AUTO 15005KT 10SM CLR M11/M16 A3031 RMK AO2
KOXV 230755Z AUTO 14005KT 10SM CLR M11/M16 A3030 RMK AO2
KOXV 230735Z AUTO 14004KT 10SM CLR M11/M16 A3029 RMK AO2
KOXV 230715Z AUTO 14005KT 10SM CLR M11/M16 A3029 RMK AO2
KOXV 230655Z AUTO 14003KT 10SM CLR M10/M16 A3029 RMK AO2
KOXV 230635Z AUTO 15005KT 10SM CLR M10/M16 A3030 RMK AO2
KOXV 230615Z AUTO 16005KT 10SM CLR M11/M16 A3030 RMK AO2
KOXV 230555Z AUTO 16005KT 10SM CLR M11/M16 A3030 RMK AO2
KOXV 230535Z AUTO 16005KT 10SM CLR M11/M16 A3030 RMK AO2
KOXV 230515Z AUTO 15004KT 10SM CLR M10/M16 A3029 RMK AO2
KOXV 230455Z AUTO 16004KT 10SM CLR M11/M15 A3029 RMK AO2
KOXV 230435Z AUTO 15005KT 10SM CLR M11/M15 A3029 RMK AO2
KOXV 230415Z AUTO 15004KT 10SM CLR M10/M15 A3029 RMK AO2
KOXV 230355Z AUTO 15004KT 10SM CLR M10/M15 A3029 RMK AO2
KOXV 230335Z AUTO 12003KT 10SM CLR M10/M15 A3029 RMK AO2
KOXV 230315Z AUTO 13004KT 10SM CLR M10/M15 A3029 RMK AO2
KOXV 230255Z AUTO 00000KT 10SM CLR M09/M15 A3029 RMK AO2
KOXV 230235Z AUTO 08004KT 10SM CLR M09/M15 A3029 RMK AO2
KOXV 230215Z AUTO 08005KT 10SM CLR M09/M15 A3028 RMK AO2
KOXV 230155Z AUTO 00000KT 10SM CLR M09/M16 A3029 RMK AO2
KOXV 230135Z AUTO 09004KT 10SM FEW120 M08/M16 A3029 RMK AO2
KOXV 230115Z AUTO 08005KT 10SM SCT120 M08/M16 A3029 RMK AO2